Time;durP1;ratioP1;P1;durP2;ratioP2;P2;SDS_P1;SDS_P2;PMS_P1;PMS_P2;Temp;Humidity;BMP_temperature;BMP_pressure;BME280_temperature;BME280_humidity;BME280_pressure;Samples;Min_cycle;Max_cycle;Signal;HPM_P1;HPM_P2
2022/09/13 00:00:45;;;;;;;12.95;4.15;;;21.80;99.90;;;;;;5053454;28;20501;-63
2022/09/13 00:03:11;;;;;;;14.00;4.10;;;21.90;99.90;;;;;;5052277;28;20124;-62
2022/09/13 00:05:38;;;;;;;10.45;3.60;;;21.90;99.90;;;;;;5053618;28;20039;-62
2022/09/13 00:08:05;;;;;;;15.32;3.90;;;21.70;99.90;;;;;;5053142;28;20021;-63
2022/09/13 00:10:33;;;;;;;11.18;5.00;;;22.00;99.90;;;;;;5053844;28;20033;-62
2022/09/13 00:12:59;;;;;;;7.65;4.10;;;21.90;99.90;;;;;;5053045;28;20025;-62
2022/09/13 00:15:25;;;;;;;11.40;4.35;;;22.00;99.90;;;;;;5053385;28;20075;-63
2022/09/13 00:17:50;;;;;;;11.65;4.25;;;21.80;99.90;;;;;;5053414;28;20029;-63
2022/09/13 00:20:16;;;;;;;11.82;4.60;;;22.00;99.90;;;;;;5053085;28;20064;-63
2022/09/13 00:22:42;;;;;;;10.45;3.90;;;21.70;99.90;;;;;;5052970;28;20036;-62
2022/09/13 00:25:08;;;;;;;13.52;4.18;;;21.70;99.90;;;;;;5053283;28;20025;-62
2022/09/13 00:27:36;;;;;;;9.93;3.90;;;21.70;99.90;;;;;;5053164;28;20039;-62
2022/09/13 00:30:04;;;;;;;12.80;4.55;;;21.90;99.90;;;;;;5052653;28;20108;-62
2022/09/13 00:32:30;;;;;;;11.68;4.32;;;21.90;99.90;;;;;;5053453;28;20378;-62
2022/09/13 00:34:55;;;;;;;12.05;4.90;;;21.90;99.90;;;;;;5052738;28;20024;-62
2022/09/13 00:37:21;;;;;;;12.27;4.70;;;21.50;99.90;;;;;;5052201;28;20033;-61
2022/09/13 00:39:47;;;;;;;11.52;4.13;;;21.60;99.90;;;;;;5052724;28;20025;-62
2022/09/13 00:42:13;;;;;;;12.80;4.85;;;21.60;99.90;;;;;;5052122;28;20025;-62
2022/09/13 00:45:02;;;;;;;14.18;4.80;;;21.60;99.90;;;;;;5051690;28;20044;-62
2022/09/13 00:47:55;;;;;;;14.35;4.43;;;21.50;99.90;;;;;;5049824;28;20607;-62
2022/09/13 00:50:41;;;;;;;12.07;4.40;;;21.40;99.90;;;;;;5052545;28;20017;-62
2022/09/13 00:53:11;;;;;;;9.85;4.38;;;21.60;99.90;;;;;;5052139;28;20036;-61
2022/09/13 00:55:39;;;;;;;12.20;4.45;;;21.70;99.90;;;;;;5051887;28;20021;-61
2022/09/13 00:58:09;;;;;;;12.15;4.68;;;21.90;99.90;;;;;;5052599;28;20025;-61
2022/09/13 01:00:36;;;;;;;10.35;4.57;;;21.50;99.90;;;;;;5052248;28;20064;-62
2022/09/13 01:03:08;;;;;;;15.38;5.20;;;21.30;99.90;;;;;;5052406;28;20047;-62
2022/09/13 01:05:39;;;;;;;13.63;4.57;;;21.40;99.90;;;;;;5051607;28;20465;-61
2022/09/13 01:08:21;;;;;;;16.33;4.95;;;21.30;99.90;;;;;;5052410;28;20086;-62
2022/09/13 01:10:49;;;;;;;12.15;4.40;;;21.40;99.90;;;;;;5052132;28;20056;-62
2022/09/13 01:13:19;;;;;;;12.73;4.50;;;21.40;99.90;;;;;;5052218;28;20028;-62
2022/09/13 01:15:46;;;;;;;11.85;4.35;;;21.30;99.90;;;;;;5050666;28;20028;-62
2022/09/13 01:18:12;;;;;;;9.68;4.30;;;21.40;99.90;;;;;;5052126;28;20432;-61
2022/09/13 01:20:50;;;;;;;12.38;4.25;;;21.40;99.90;;;;;;5051561;28;20049;-62
2022/09/13 01:23:53;;;;;;;9.07;3.88;;;21.50;99.90;;;;;;5051060;28;20029;-62
2022/09/13 01:26:47;;;;;;;10.82;4.20;;;21.50;99.90;;;;;;5050107;28;20382;-60
2022/09/13 01:29:50;;;;;;;11.52;4.03;;;21.40;99.90;;;;;;5050946;28;20029;-62
2022/09/13 01:32:56;;;;;;;10.07;3.67;;;21.30;99.90;;;;;;5050859;28;20044;-62
2022/09/13 01:35:43;;;;;;;11.77;4.20;;;21.40;99.90;;;;;;5028413;28;20064;-62
2022/09/13 01:38:21;;;;;;;8.20;4.10;;;21.20;99.90;;;;;;5029589;28;20025;-62
2022/09/13 01:41:05;;;;;;;9.68;4.50;;;21.10;99.90;;;;;;5029520;28;20436;-61
2022/09/13 01:44:05;;;;;;;9.65;4.07;;;21.00;99.90;;;;;;5029323;28;20024;-62
2022/09/13 01:46:49;;;;;;;9.38;4.28;;;21.00;99.90;;;;;;5024220;28;20088;-62
2022/09/13 01:49:36;;;;;;;12.93;4.10;;;20.90;99.90;;;;;;5029204;28;20116;-62
2022/09/13 01:52:19;;;;;;;10.75;4.00;;;20.90;99.90;;;;;;5029370;28;20500;-62
2022/09/13 01:55:13;;;;;;;9.57;3.70;;;21.00;99.90;;;;;;5029788;28;20030;-62
2022/09/13 01:57:54;;;;;;;8.60;3.85;;;21.00;99.90;;;;;;5028979;28;20444;-62
2022/09/13 02:00:20;;;;;;;9.27;4.10;;;20.90;99.90;;;;;;5029216;28;20077;-61
2022/09/13 02:03:01;;;;;;;9.50;3.92;;;20.90;99.90;;;;;;5029369;28;20053;-61
2022/09/13 02:05:44;;;;;;;11.15;3.67;;;21.10;99.90;;;;;;5028614;28;20117;-61
2022/09/13 02:08:39;;;;;;;8.43;3.67;;;21.10;99.90;;;;;;5029491;28;20063;-61
2022/09/13 02:11:05;;;;;;;8.13;3.53;;;21.20;99.90;;;;;;5030303;28;20570;-62
2022/09/13 02:13:36;;;;;;;9.20;3.55;;;21.20;99.90;;;;;;5051850;28;20025;-61
2022/09/13 02:16:10;;;;;;;9.25;4.03;;;20.90;99.90;;;;;;5051275;28;20025;-60
2022/09/13 02:18:40;;;;;;;;;;;20.80;99.90;;;;;;5051268;28;20071;-61
2022/09/13 02:21:23;;;;;;;7.63;3.38;;;21.10;99.90;;;;;;5050960;28;19921;-61
2022/09/13 02:24:06;;;;;;;6.82;3.38;;;21.00;99.90;;;;;;5051676;28;20029;-61
2022/09/13 02:26:35;;;;;;;7.15;3.25;;;21.00;99.90;;;;;;5053724;28;20029;-61
2022/09/13 02:29:06;;;;;;;12.00;3.80;;;21.00;99.90;;;;;;5054365;28;20032;-61
2022/09/13 02:31:53;;;;;;;9.65;3.70;;;20.90;99.90;;;;;;5055497;28;20060;-60
2022/09/13 02:34:26;;;;;;;7.18;3.35;;;21.00;99.90;;;;;;5054108;28;20025;-61
2022/09/13 02:36:55;;;;;;;9.02;3.45;;;20.90;99.90;;;;;;5054980;28;20021;-61
2022/09/13 02:39:24;;;;;;;12.20;4.15;;;20.80;99.90;;;;;;5055010;28;20013;-61
2022/09/13 02:41:55;;;;;;;8.45;3.45;;;20.90;99.90;;;;;;5054920;28;20041;-61
2022/09/13 02:44:32;;;;;;;9.10;3.70;;;21.00;99.90;;;;;;5054994;28;20120;-62
2022/09/13 02:47:26;;;;;;;11.52;3.90;;;21.00;99.90;;;;;;5054397;28;20025;-62
2022/09/13 02:50:25;;;;;;;11.63;3.63;;;21.10;99.90;;;;;;5054935;28;20032;-62
2022/09/13 02:53:13;;;;;;;10.52;3.80;;;21.10;99.90;;;;;;5054671;28;20440;-62
2022/09/13 02:55:57;;;;;;;9.18;3.33;;;21.00;99.90;;;;;;5054679;28;20508;-62
2022/09/13 02:58:42;;;;;;;8.23;3.53;;;21.00;99.90;;;;;;5054665;28;20120;-62
2022/09/13 03:01:08;;;;;;;13.27;3.90;;;20.90;99.90;;;;;;5054270;28;20068;-62
2022/09/13 03:03:33;;;;;;;13.30;3.90;;;21.00;99.90;;;;;;5054011;28;20508;-62
2022/09/13 03:05:59;;;;;;;11.25;3.60;;;21.00;99.90;;;;;;5054683;28;20029;-61
2022/09/13 03:08:26;;;;;;;9.57;3.60;;;21.00;99.90;;;;;;5054596;28;20024;-62
2022/09/13 03:11:06;;;;;;;7.93;3.67;;;21.00;99.90;;;;;;5053973;28;20056;-62
2022/09/13 03:13:51;;;;;;;10.90;3.85;;;20.90;99.90;;;;;;5054447;28;20094;-62
2022/09/13 03:16:34;;;;;;;9.65;3.97;;;20.90;99.90;;;;;;5054004;28;20476;-62
2022/09/13 03:19:08;;;;;;;10.40;3.70;;;21.00;99.90;;;;;;5054278;28;20025;-61
2022/09/13 03:21:44;;;;;;;;;;;21.10;99.90;;;;;;5054444;28;20053;-62
2022/09/13 03:24:24;;;;;;;13.25;4.00;;;21.00;99.90;;;;;;5054285;28;19944;-63
2022/09/13 03:27:02;;;;;;;8.90;3.38;;;21.00;99.90;;;;;;5052487;28;20060;-62
2022/09/13 03:29:54;;;;;;;16.05;3.53;;;21.10;99.90;;;;;;5053628;28;20036;-62
2022/09/13 03:32:39;;;;;;;8.43;3.60;;;21.20;99.90;;;;;;5054023;28;20112;-62
2022/09/13 03:35:11;;;;;;;9.82;3.28;;;21.10;99.90;;;;;;5053754;28;20021;-62
2022/09/13 03:38:08;;;;;;;11.80;3.83;;;21.20;99.90;;;;;;5053547;28;20021;-62
2022/09/13 03:41:06;;;;;;;8.73;3.80;;;21.10;99.90;;;;;;5053706;28;20049;-62
2022/09/13 03:43:52;;;;;;;5.80;3.35;;;21.10;99.90;;;;;;5050707;28;20040;-62
2022/09/13 03:46:41;;;;;;;10.52;3.92;;;21.20;99.90;;;;;;5052975;28;20025;-63
2022/09/13 03:49:14;;;;;;;10.98;3.60;;;21.10;99.90;;;;;;5053408;28;20043;-62
2022/09/13 03:51:41;;;;;;;8.90;3.58;;;21.20;99.90;;;;;;5054023;28;20025;-62
2022/09/13 03:54:18;;;;;;;10.13;3.70;;;21.20;99.90;;;;;;5053694;28;20033;-62
2022/09/13 03:57:05;;;;;;;10.57;3.63;;;21.20;99.90;;;;;;5052312;28;20482;-62
2022/09/13 03:59:30;;;;;;;10.02;3.90;;;21.40;99.90;;;;;;5052978;28;20367;-60
2022/09/13 04:01:56;;;;;;;10.43;3.20;;;21.40;99.90;;;;;;5053901;28;20094;-62
2022/09/13 04:04:22;;;;;;;10.57;4.00;;;21.50;99.90;;;;;;5053372;28;20024;-62
2022/09/13 04:06:47;;;;;;;7.20;3.30;;;21.40;99.90;;;;;;5053449;28;20090;-62
2022/09/13 04:09:13;;;;;;;10.55;4.00;;;21.50;99.90;;;;;;5053575;28;20025;-62
2022/09/13 04:11:39;;;;;;;8.77;3.67;;;21.60;99.90;;;;;;5052038;28;20040;-62
2022/09/13 04:14:05;;;;;;;9.48;3.95;;;21.40;99.90;;;;;;5052927;28;20036;-61
2022/09/13 04:16:31;;;;;;;10.65;3.60;;;21.40;99.90;;;;;;5052994;28;20028;-63
2022/09/13 04:18:56;;;;;;;10.95;4.30;;;21.50;99.90;;;;;;5052603;28;20025;-62
2022/09/13 04:21:22;;;;;;;9.23;3.42;;;21.50;99.90;;;;;;5053046;28;20045;-62
2022/09/13 04:23:49;;;;;;;10.85;3.88;;;21.50;99.90;;;;;;5053151;28;20059;-62
2022/09/13 04:26:16;;;;;;;11.93;4.20;;;21.50;99.90;;;;;;5053091;28;20029;-61
2022/09/13 04:28:42;;;;;;;11.35;3.92;;;21.60;99.90;;;;;;5052373;28;20032;-61
2022/09/13 04:31:07;;;;;;;8.68;4.18;;;21.70;99.90;;;;;;5052892;28;20143;-61
2022/09/13 04:33:33;;;;;;;8.25;3.97;;;21.70;99.90;;;;;;5052743;28;20032;-62
2022/09/13 04:35:59;;;;;;;11.88;4.05;;;21.60;99.90;;;;;;5052797;28;20075;-62
2022/09/13 04:38:25;;;;;;;11.55;4.25;;;21.70;99.90;;;;;;5052888;28;20055;-62
2022/09/13 04:40:53;;;;;;;9.88;4.00;;;21.70;99.90;;;;;;5052281;28;20504;-61
2022/09/13 04:43:19;;;;;;;8.35;3.67;;;21.60;99.90;;;;;;5051261;28;20025;-61
2022/09/13 04:45:45;;;;;;;10.98;4.45;;;21.80;99.90;;;;;;5051696;28;20036;-62
2022/09/13 04:48:11;;;;;;;9.73;3.95;;;21.80;99.90;;;;;;5050794;28;20052;-62
2022/09/13 04:50:37;;;;;;;11.18;4.30;;;21.80;99.90;;;;;;5052658;28;20498;-62
2022/09/13 04:53:03;;;;;;;10.88;4.20;;;21.80;99.90;;;;;;5052400;28;20029;-62
2022/09/13 04:55:28;;;;;;;7.75;4.20;;;21.80;99.90;;;;;;5052434;28;20080;-61
2022/09/13 04:57:55;;;;;;;10.48;3.92;;;21.80;99.90;;;;;;5052160;28;20044;-61
2022/09/13 05:00:21;;;;;;;7.05;4.57;;;21.90;99.90;;;;;;5052388;28;20028;-61
2022/09/13 05:02:47;;;;;;;11.15;3.72;;;22.00;99.90;;;;;;5052693;28;20052;-60
2022/09/13 05:05:13;;;;;;;9.52;4.40;;;21.90;99.90;;;;;;5052409;28;20020;-61
2022/09/13 05:07:39;;;;;;;8.48;4.43;;;22.00;99.90;;;;;;5052427;28;20025;-61
2022/09/13 05:10:05;;;;;;;10.80;4.40;;;22.00;99.90;;;;;;5052064;28;20036;-60
2022/09/13 05:12:31;;;;;;;7.40;4.60;;;22.00;99.90;;;;;;5050669;28;20099;-61
2022/09/13 05:14:57;;;;;;;8.55;4.30;;;22.00;99.90;;;;;;5052534;28;20163;-61
2022/09/13 05:17:22;;;;;;;9.77;4.70;;;22.10;99.90;;;;;;5051555;28;20029;-62
2022/09/13 05:19:48;;;;;;;7.25;4.22;;;22.20;99.90;;;;;;5052183;28;20021;-61
2022/09/13 05:22:14;;;;;;;11.10;4.20;;;22.20;99.90;;;;;;5051733;28;20056;-61
2022/09/13 05:24:39;;;;;;;10.70;4.22;;;22.10;99.90;;;;;;5052115;28;20520;-61
2022/09/13 05:27:05;;;;;;;5.32;4.10;;;22.10;99.90;;;;;;5051644;28;20075;-61
2022/09/13 05:29:31;;;;;;;8.98;4.70;;;22.20;99.90;;;;;;5050630;28;20489;-62
2022/09/13 05:31:57;;;;;;;11.90;4.65;;;22.10;99.90;;;;;;5051749;28;20381;-62
2022/09/13 05:34:23;;;;;;;8.57;4.65;;;22.10;99.90;;;;;;5051563;28;20481;-61
2022/09/13 05:36:49;;;;;;;8.07;4.28;;;22.10;99.90;;;;;;5051749;28;20021;-61
2022/09/13 05:39:20;;;;;;;6.72;4.38;;;22.20;99.90;;;;;;5051634;28;20017;-60
2022/09/13 05:41:46;;;;;;;7.53;4.50;;;22.20;99.90;;;;;;5051306;28;20447;-61
2022/09/13 05:44:12;;;;;;;8.38;4.45;;;22.30;99.90;;;;;;5050738;28;20118;-61
2022/09/13 05:46:38;;;;;;;8.80;4.72;;;22.30;99.90;;;;;;5051913;28;20025;-61
2022/09/13 05:49:04;;;;;;;12.75;4.95;;;22.20;99.90;;;;;;5051526;28;20017;-61
2022/09/13 05:51:31;;;;;;;10.68;5.10;;;22.30;99.90;;;;;;5051887;28;20029;-61
2022/09/13 05:53:58;;;;;;;11.82;4.82;;;22.30;99.90;;;;;;5051583;28;20056;-61
2022/09/13 05:56:27;;;;;;;10.48;4.70;;;22.30;99.90;;;;;;5050929;28;20103;-61
2022/09/13 05:58:54;;;;;;;9.50;4.97;;;22.20;99.90;;;;;;5051457;28;20028;-61
2022/09/13 06:01:21;;;;;;;10.27;4.70;;;22.30;99.90;;;;;;5056110;28;20048;-61
2022/09/13 06:03:55;;;;;;;10.02;4.68;;;22.30;99.90;;;;;;5055605;28;20028;-59
2022/09/13 06:06:22;;;;;;;10.15;5.03;;;22.30;99.90;;;;;;5055454;28;20554;-61
2022/09/13 06:08:52;;;;;;;8.15;4.45;;;22.30;99.90;;;;;;5054566;28;20028;-61
2022/09/13 06:11:18;;;;;;;9.93;5.07;;;22.30;99.90;;;;;;5055165;28;20025;-60
2022/09/13 06:13:44;;;;;;;11.30;5.10;;;22.30;99.90;;;;;;5055515;28;20489;-60
2022/09/13 06:16:12;;;;;;;8.20;4.80;;;22.30;99.90;;;;;;5055320;28;20028;-61
2022/09/13 06:18:39;;;;;;;11.18;5.50;;;22.40;99.90;;;;;;5055444;28;20090;-61
2022/09/13 06:21:16;;;;;;;8.57;4.80;;;22.40;99.90;;;;;;5055009;28;20067;-61
2022/09/13 06:23:46;;;;;;;8.45;4.70;;;22.50;99.90;;;;;;5054450;28;20045;-60
2022/09/13 06:26:14;;;;;;;10.15;4.30;;;22.70;99.90;;;;;;5054831;28;20071;-61
2022/09/13 06:28:40;;;;;;;6.32;4.88;;;22.60;99.90;;;;;;5055168;28;20118;-62
2022/09/13 06:31:11;;;;;;;10.68;4.82;;;22.70;99.90;;;;;;5054678;28;20033;-62
2022/09/13 06:33:39;;;;;;;8.27;5.30;;;22.70;99.90;;;;;;5055189;28;20070;-61
2022/09/13 06:36:08;;;;;;;7.00;4.75;;;22.70;99.90;;;;;;5055329;28;20029;-61
2022/09/13 06:38:33;;;;;;;9.68;5.32;;;22.70;99.90;;;;;;5055098;28;20029;-61
2022/09/13 06:41:08;;;;;;;10.68;5.10;;;22.90;99.90;;;;;;5052922;28;20059;-62
2022/09/13 06:43:35;;;;;;;8.30;4.63;;;22.90;99.90;;;;;;5054956;28;20029;-62
2022/09/13 06:46:03;;;;;;;9.00;4.63;;;23.10;99.90;;;;;;5055126;28;20052;-62
2022/09/13 06:48:37;;;;;;;8.48;4.50;;;23.30;99.90;;;;;;5054978;28;20032;-62
2022/09/13 06:51:06;;;;;;;5.53;3.88;;;23.40;99.90;;;;;;5054765;28;20105;-61
2022/09/13 06:53:33;;;;;;;9.13;4.85;;;23.50;99.90;;;;;;5054680;28;20036;-62
2022/09/13 06:56:10;;;;;;;10.38;4.95;;;23.50;99.90;;;;;;5055026;28;20377;-61
2022/09/13 06:58:37;;;;;;;9.00;4.88;;;23.50;99.90;;;;;;5054825;28;20051;-61
2022/09/13 07:01:19;;;;;;;8.23;4.40;;;23.80;99.90;;;;;;5054754;28;20667;-62
2022/09/13 07:03:50;;;;;;;6.20;4.20;;;24.40;99.90;;;;;;5054843;28;20497;-62
2022/09/13 07:06:18;;;;;;;7.63;4.15;;;24.90;99.90;;;;;;5054482;28;20029;-61
2022/09/13 07:08:45;;;;;;;7.47;4.10;;;26.30;99.90;;;;;;5054263;28;20108;-61
2022/09/13 07:11:12;;;;;;;6.53;4.15;;;27.90;99.90;;;;;;5053922;28;20025;-62
2022/09/13 07:13:38;;;;;;;6.50;4.13;;;28.40;99.90;;;;;;5054657;28;20032;-64
2022/09/13 07:16:07;;;;;;;7.93;3.75;;;28.10;99.90;;;;;;5054028;28;20036;-62
2022/09/13 07:18:33;;;;;;;7.10;3.70;;;28.90;99.90;;;;;;5054449;28;20021;-63
2022/09/13 07:21:02;;;;;;;7.60;3.28;;;28.30;99.90;;;;;;5053357;28;20037;-63
2022/09/13 07:23:28;;;;;;;6.57;3.78;;;28.00;99.90;;;;;;5053520;28;20378;-63
2022/09/13 07:26:00;;;;;;;8.13;3.72;;;28.00;99.90;;;;;;5054011;28;20382;-63
2022/09/13 07:28:28;;;;;;;6.57;3.40;;;27.20;99.90;;;;;;5054154;28;20039;-62
2022/09/13 07:30:53;;;;;;;7.93;3.90;;;26.50;99.90;;;;;;5053999;28;20022;-63
2022/09/13 07:33:19;;;;;;;5.90;3.70;;;26.10;99.90;;;;;;5054147;28;20028;-63
2022/09/13 07:35:45;;;;;;;7.55;3.88;;;25.90;99.90;;;;;;5054332;28;20033;-63
2022/09/13 07:38:11;;;;;;;4.90;3.35;;;25.80;99.90;;;;;;5053468;28;20108;-63
2022/09/13 07:40:37;;;;;;;7.78;3.80;;;25.80;99.90;;;;;;5053668;28;20505;-64
2022/09/13 07:43:03;;;;;;;9.63;3.75;;;25.80;99.90;;;;;;5053857;28;20105;-63
2022/09/13 07:45:28;;;;;;;6.97;3.67;;;25.80;99.90;;;;;;5054329;28;20062;-63
2022/09/13 07:47:54;;;;;;;6.18;3.70;;;26.10;99.90;;;;;;5053992;28;20025;-63
2022/09/13 07:50:20;;;;;;;5.78;3.45;;;26.30;99.90;;;;;;5053834;28;20075;-62
2022/09/13 07:52:46;;;;;;;5.93;3.60;;;28.30;99.90;;;;;;5053408;28;20037;-63
2022/09/13 07:55:11;;;;;;;7.00;3.55;;;28.00;99.90;;;;;;5053912;28;20481;-63
2022/09/13 07:57:37;;;;;;;6.47;3.67;;;28.40;99.90;;;;;;5053270;28;20071;-63
2022/09/13 08:00:04;;;;;;;7.88;3.72;;;28.30;99.90;;;;;;5053817;28;20029;-63
2022/09/13 08:02:30;;;;;;;8.18;3.95;;;27.50;99.90;;;;;;5053614;28;20033;-63
2022/09/13 08:04:55;;;;;;;7.47;3.72;;;27.50;99.90;;;;;;5053191;28;20449;-63
2022/09/13 08:07:21;;;;;;;7.47;3.40;;;28.40;99.90;;;;;;5053485;28;20359;-63
2022/09/13 08:09:47;;;;;;;5.20;3.30;;;27.80;99.90;;;;;;5053471;28;20032;-63
2022/09/13 08:12:12;;;;;;;7.80;3.70;;;28.10;99.90;;;;;;5053228;28;20053;-63
2022/09/13 08:14:38;;;;;;;8.00;4.20;;;27.30;99.90;;;;;;5053424;28;20025;-63
2022/09/13 08:17:04;;;;;;;7.93;3.90;;;26.90;99.90;;;;;;5053148;28;20505;-63
2022/09/13 08:19:29;;;;;;;9.07;4.10;;;26.80;99.90;;;;;;5053375;28;20386;-63
2022/09/13 08:21:55;;;;;;;8.02;3.47;;;26.70;99.90;;;;;;5052685;28;20049;-63
2022/09/13 08:24:21;;;;;;;8.68;3.45;;;26.60;99.90;;;;;;5052093;28;20067;-63
2022/09/13 08:26:47;;;;;;;9.25;3.70;;;26.40;99.90;;;;;;5053465;28;20481;-63
2022/09/13 08:29:14;;;;;;;6.35;3.75;;;26.10;99.90;;;;;;5053038;28;20021;-63
2022/09/13 08:31:40;;;;;;;6.07;3.50;;;25.90;99.90;;;;;;5053024;28;20371;-63
2022/09/13 08:34:16;;;;;;;6.60;3.45;;;25.80;99.90;;;;;;5052777;28;20059;-63
2022/09/13 08:36:43;;;;;;;6.68;3.60;;;25.80;99.90;;;;;;5052598;28;20105;-63
2022/09/13 08:39:12;;;;;;;9.27;3.53;;;25.70;99.90;;;;;;5052683;28;20087;-62
2022/09/13 08:41:41;;;;;;;7.90;4.00;;;25.70;99.90;;;;;;5051182;28;20057;-63
2022/09/13 08:44:22;;;;;;;6.03;3.83;;;25.90;99.90;;;;;;5052788;28;20098;-63
2022/09/13 08:46:49;;;;;;;4.07;3.63;;;25.50;99.90;;;;;;5052535;28;20021;-63
2022/09/13 08:49:21;;;;;;;5.65;4.10;;;25.60;99.90;;;;;;5034951;28;20040;-63
2022/09/13 08:51:58;;;;;;;5.77;4.20;;;25.60;99.90;;;;;;5053004;28;20040;-64
2022/09/13 08:54:24;;;;;;;7.10;4.18;;;25.60;99.90;;;;;;5052614;28;20051;-63
2022/09/13 08:57:07;;;;;;;8.65;4.50;;;25.10;99.90;;;;;;5052568;28;20057;-62
2022/09/13 08:59:51;;;;;;;6.25;4.50;;;25.00;99.90;;;;;;5052417;28;20021;-63
2022/09/13 09:02:37;;;;;;;7.97;4.35;;;25.00;99.90;;;;;;5052306;28;20489;-63
2022/09/13 09:05:20;;;;;;;8.05;4.45;;;25.00;99.90;;;;;;5051878;28;20416;-63
2022/09/13 09:07:51;;;;;;;9.83;4.70;;;25.00;99.90;;;;;;5052712;28;20029;-63
2022/09/13 09:10:22;;;;;;;8.77;4.30;;;25.50;99.90;;;;;;5052189;28;20031;-63
2022/09/13 09:12:50;;;;;;;8.68;4.13;;;26.80;99.90;;;;;;5052259;28;20024;-63
2022/09/13 09:15:24;;;;;;;6.60;4.05;;;26.80;99.90;;;;;;5052204;28;20359;-62
2022/09/13 09:18:08;;;;;;;8.23;4.50;;;26.20;99.90;;;;;;5051976;28;20024;-63
2022/09/13 09:20:40;;;;;;;;;;;25.80;99.90;;;;;;5052043;28;20533;-62
2022/09/13 09:23:19;;;;;;;5.95;4.70;;;25.40;99.90;;;;;;5052098;28;20303;-63
2022/09/13 09:25:45;;;;;;;9.23;5.10;;;25.30;99.90;;;;;;5052385;28;20029;-63
2022/09/13 09:28:16;;;;;;;8.23;4.70;;;25.20;99.90;;;;;;5052212;28;20052;-63
2022/09/13 09:30:59;;;;;;;9.32;4.82;;;25.20;99.90;;;;;;5052056;28;20075;-63
2022/09/13 09:33:28;;;;;;;9.93;4.70;;;25.20;99.90;;;;;;5051678;28;20031;-62
2022/09/13 09:36:10;;;;;;;7.45;3.88;;;25.10;99.90;;;;;;5052068;28;20029;-63
2022/09/13 09:38:40;;;;;;;6.63;4.25;;;25.20;99.90;;;;;;5051529;28;20029;-63
2022/09/13 09:41:34;;;;;;;9.93;4.03;;;25.30;99.90;;;;;;5052011;28;20052;-62
2022/09/13 09:44:27;;;;;;;8.98;3.63;;;25.40;99.90;;;;;;5051851;28;20096;-62
2022/09/13 09:47:17;;;;;;;7.78;3.47;;;25.40;99.90;;;;;;5050604;28;20497;-62
2022/09/13 09:50:09;;;;;;;6.57;3.58;;;25.40;99.90;;;;;;5052125;28;20017;-62
2022/09/13 09:52:49;;;;;;;6.65;3.60;;;25.60;99.90;;;;;;5051851;28;20029;-63
2022/09/13 09:55:27;;;;;;;9.50;4.07;;;25.80;99.90;;;;;;5051174;28;20427;-63
2022/09/13 09:58:05;;;;;;;10.85;3.47;;;26.40;99.90;;;;;;5052007;28;20052;-63
2022/09/13 10:00:34;;;;;;;9.43;3.47;;;27.20;99.90;;;;;;5051969;28;20056;-63
2022/09/13 10:03:23;;;;;;;7.57;3.22;;;28.00;99.90;;;;;;5051296;28;20575;-63
2022/09/13 10:05:49;;;;;;;11.13;2.88;;;28.70;99.90;;;;;;5051172;28;20450;-63
2022/09/13 10:08:47;;;;;;;8.00;3.05;;;28.30;99.90;;;;;;5051499;28;20131;-63
2022/09/13 10:11:14;;;;;;;8.35;3.17;;;28.70;99.90;;;;;;5047269;28;20045;-63
2022/09/13 10:14:00;;;;;;;5.53;3.03;;;29.00;99.90;;;;;;5051986;28;20112;-63
2022/09/13 10:16:29;;;;;;;5.93;3.00;;;30.70;99.90;;;;;;5051152;28;20108;-62
2022/09/13 10:19:24;;;;;;;7.60;2.80;;;32.10;99.90;;;;;;5051821;28;20051;-63
2022/09/13 10:22:09;;;;;;;8.80;2.97;;;33.90;99.90;;;;;;5051331;28;20095;-62
2022/09/13 10:24:35;;;;;;;8.25;3.10;;;32.80;99.90;;;;;;5051781;28;20025;-63
2022/09/13 10:27:03;;;;;;;6.95;2.92;;;33.40;99.90;;;;;;5051373;28;20028;-63
2022/09/13 10:29:30;;;;;;;6.85;2.42;;;34.60;99.90;;;;;;5051365;28;20116;-62
2022/09/13 10:31:57;;;;;;;9.18;2.80;;;33.30;99.90;;;;;;5050899;28;20021;-63
2022/09/13 10:34:35;;;;;;;8.35;2.65;;;32.40;99.90;;;;;;5051428;28;20029;-63
2022/09/13 10:37:35;;;;;;;7.25;3.00;;;32.60;99.90;;;;;;5051694;28;20466;-62
2022/09/13 10:40:08;;;;;;;8.30;2.60;;;32.50;99.90;;;;;;5029032;28;20056;-63
2022/09/13 10:42:35;;;;;;;8.80;2.53;;;32.70;99.90;;;;;;5029255;28;20053;-62
2022/09/13 10:45:07;;;;;;;8.15;2.72;;;32.70;99.90;;;;;;5029147;28;20442;-62
2022/09/13 10:47:43;;;;;;;8.30;3.05;;;32.30;99.90;;;;;;5031331;28;20109;-63
2022/09/13 10:50:25;;;;;;;8.25;2.88;;;32.40;99.90;;;;;;5032683;28;20033;-63
2022/09/13 10:52:55;;;;;;;6.05;2.20;;;33.20;99.90;;;;;;5032793;28;20049;-63
2022/09/13 10:55:21;;;;;;;8.27;2.75;;;32.50;99.90;;;;;;5032896;28;20517;-63
2022/09/13 10:57:48;;;;;;;6.35;2.60;;;31.90;99.90;;;;;;5032599;28;20025;-63
2022/09/13 11:00:19;;;;;;;5.95;2.50;;;32.10;99.90;;;;;;5032125;28;20032;-62
2022/09/13 11:03:06;;;;;;;7.18;2.40;;;33.00;99.90;;;;;;5033021;28;20406;-63
2022/09/13 11:05:40;;;;;;;5.88;2.75;;;32.70;99.90;;;;;;5032797;28;20401;-63
2022/09/13 11:08:39;;;;;;;7.25;2.72;;;32.50;99.90;;;;;;5032412;28;20438;-63
2022/09/13 11:11:36;;;;;;;9.93;2.60;;;33.10;99.90;;;;;;5032460;28;20080;-63
2022/09/13 11:14:20;;;;;;;6.38;2.47;;;32.50;99.90;;;;;;4992836;28;20176;-63
2022/09/13 11:17:27;;;;;;;7.32;2.92;;;33.10;99.90;;;;;;4992929;28;20149;-63
2022/09/13 11:20:11;;;;;;;8.02;2.67;;;32.60;99.90;;;;;;4992565;28;20034;-63
2022/09/13 11:22:45;;;;;;;8.45;2.70;;;32.70;99.90;;;;;;4992955;28;20049;-63
2022/09/13 11:25:26;;;;;;;7.80;2.90;;;32.50;99.90;;;;;;4992618;28;20105;-63
2022/09/13 11:28:20;;;;;;;7.15;2.50;;;32.40;99.90;;;;;;4993191;28;20491;-63
2022/09/13 11:31:03;;;;;;;7.50;2.75;;;32.10;99.90;;;;;;4992277;28;20046;-63
2022/09/13 11:33:51;;;;;;;7.10;2.72;;;32.20;99.90;;;;;;4992749;28;20619;-63
2022/09/13 11:36:19;;;;;;;13.98;2.85;;;31.70;99.90;;;;;;4992344;28;20034;-63
2022/09/13 11:39:12;;;;;;;8.52;2.47;;;31.70;99.90;;;;;;4992488;28;20062;-63
2022/09/13 11:41:42;;;;;;;;;;;32.60;99.90;;;;;;4993266;28;20142;-63
2022/09/13 11:44:30;;;;;;;7.78;2.72;;;33.20;99.90;;;;;;4992210;28;20351;-63
2022/09/13 11:47:18;;;;;;;8.10;2.90;;;33.20;98.50;;;;;;4992356;28;20053;-63
2022/09/13 11:49:53;;;;;;;7.78;3.28;;;33.30;99.40;;;;;;4993386;28;20044;-63
2022/09/13 11:52:37;;;;;;;7.35;2.67;;;32.90;99.10;;;;;;5012059;28;20026;-63
2022/09/13 11:55:25;;;;;;;6.93;2.95;;;33.10;99.30;;;;;;5011602;28;20042;-63
2022/09/13 11:57:57;;;;;;;11.25;2.95;;;33.00;99.50;;;;;;5011617;28;20030;-62
2022/09/13 12:00:29;;;;;;;9.95;3.20;;;32.60;98.40;;;;;;5011432;28;20033;-62
2022/09/13 12:03:09;;;;;;;8.80;3.08;;;32.20;99.30;;;;;;4995949;28;20034;-63
2022/09/13 12:06:00;;;;;;;6.95;2.85;;;32.30;99.30;;;;;;4995063;28;20022;-63
2022/09/13 12:08:29;;;;;;;10.23;2.83;;;32.40;98.90;;;;;;5041872;28;20048;-63
2022/09/13 12:11:14;;;;;;;9.75;3.00;;;32.40;98.70;;;;;;5053430;28;20021;-63
2022/09/13 12:13:50;;;;;;;6.15;2.50;;;32.10;97.90;;;;;;5053062;28;20474;-63
2022/09/13 12:16:27;;;;;;;8.15;2.50;;;32.00;99.20;;;;;;5053274;28;20115;-63
2022/09/13 12:18:58;;;;;;;6.53;2.70;;;32.20;97.80;;;;;;5053528;28;20033;-63
2022/09/13 12:21:28;;;;;;;9.27;2.95;;;32.00;97.10;;;;;;5053096;28;20041;-63
2022/09/13 12:24:00;;;;;;;5.97;2.60;;;31.90;97.70;;;;;;5053293;28;20024;-63
2022/09/13 12:26:51;;;;;;;11.18;3.22;;;31.80;97.50;;;;;;5052956;28;20505;-63
2022/09/13 12:29:38;;;;;;;7.05;2.90;;;31.70;96.90;;;;;;5053084;28;20108;-63
2022/09/13 12:32:06;;;;;;;7.40;3.08;;;31.70;97.40;;;;;;5052967;28;20049;-63
2022/09/13 12:34:40;;;;;;;8.35;3.00;;;31.90;97.60;;;;;;5052905;28;20119;-63
2022/09/13 12:37:18;;;;;;;6.85;3.10;;;31.60;98.30;;;;;;5053019;28;20033;-63
2022/09/13 12:40:22;;;;;;;9.55;3.05;;;31.40;98.10;;;;;;5052670;28;20346;-63
2022/09/13 12:43:00;;;;;;;8.77;3.03;;;31.30;98.10;;;;;;5047546;28;20037;-63
2022/09/13 12:45:45;;;;;;;7.47;2.95;;;31.10;97.90;;;;;;5053117;28;20029;-63
2022/09/13 12:48:32;;;;;;;12.90;3.33;;;31.40;98.00;;;;;;5052709;28;20442;-63
2022/09/13 12:51:22;;;;;;;9.35;3.28;;;31.40;98.00;;;;;;5052777;28;20021;-62
2022/09/13 12:54:08;;;;;;;8.13;3.22;;;31.20;98.20;;;;;;5052556;28;20124;-63
2022/09/13 12:56:53;;;;;;;10.60;3.40;;;31.20;97.60;;;;;;5050951;28;20056;-63
2022/09/13 12:59:34;;;;;;;11.20;3.17;;;31.30;97.50;;;;;;5052665;28;20044;-63
2022/09/13 13:02:20;;;;;;;8.07;3.13;;;31.50;97.60;;;;;;5052690;28;20037;-63
2022/09/13 13:04:53;;;;;;;11.13;2.80;;;31.50;97.10;;;;;;5052990;28;20043;-63
2022/09/13 13:07:22;;;;;;;8.70;2.90;;;31.50;96.40;;;;;;5052584;28;20029;-63
2022/09/13 13:09:53;;;;;;;9.38;2.70;;;31.50;96.70;;;;;;5051831;28;20086;-63
2022/09/13 13:12:34;;;;;;;9.48;3.38;;;31.50;96.40;;;;;;5052316;28;20051;-63
2022/09/13 13:15:26;;;;;;;10.18;2.70;;;31.50;96.50;;;;;;5052383;28;20384;-63
2022/09/13 13:17:53;;;;;;;11.25;3.25;;;31.30;97.00;;;;;;5030054;28;20433;-63
2022/09/13 13:20:44;;;;;;;10.65;3.13;;;31.20;96.60;;;;;;5029899;28;20120;-63